createdAt,value
2017-07-09T00:03:26.798Z,18.77
2017-07-09T00:08:34.539Z,18.89
2017-07-09T00:13:30.991Z,18.75
2017-07-09T00:18:27.881Z,18.81
2017-07-09T00:33:27.119Z,18.89
2017-07-09T00:38:23.018Z,18.81
2017-07-09T00:43:21.213Z,18.80
2017-07-09T00:48:21.819Z,18.53
2017-07-09T00:53:18.100Z,18.44
2017-07-09T00:58:14.916Z,18.45
2017-07-09T01:03:12.001Z,18.11
2017-07-09T01:08:10.121Z,18.05
2017-07-09T01:13:06.183Z,17.95
2017-07-09T01:18:02.802Z,18.18
2017-07-09T01:28:06.351Z,17.85
2017-07-09T01:38:11.621Z,17.98
2017-07-09T01:43:08.988Z,18.15
2017-07-09T01:48:05.516Z,17.90
2017-07-09T01:53:02.620Z,18.04
2017-07-09T01:57:59.255Z,18.07
2017-07-09T02:02:54.952Z,17.98
2017-07-09T02:08:00.131Z,17.74
2017-07-09T02:12:56.569Z,17.60
2017-07-09T02:17:53.843Z,17.56
2017-07-09T02:27:55.504Z,17.82
2017-07-09T02:37:58.858Z,17.97
2017-07-09T02:42:59.171Z,17.60
2017-07-09T02:47:54.940Z,17.57
2017-07-09T02:52:51.903Z,17.68
2017-07-09T02:57:56.616Z,17.65
2017-07-09T03:02:52.058Z,17.60
2017-07-09T03:07:49.201Z,17.46
2017-07-09T03:22:50.126Z,17.63
2017-07-09T03:27:46.154Z,17.56
2017-07-09T03:32:42.194Z,17.67
2017-07-09T03:37:38.225Z,17.41
2017-07-09T03:42:33.980Z,17.51
2017-07-09T03:47:29.801Z,17.65
2017-07-09T03:52:26.365Z,17.42
2017-07-09T03:57:23.079Z,17.42
2017-07-09T04:02:20.407Z,17.23
2017-07-09T04:07:18.184Z,17.46
2017-07-09T04:12:18.275Z,17.36
2017-07-09T04:17:14.468Z,17.23
2017-07-09T04:22:10.949Z,17.05
2017-07-09T04:27:10.279Z,17.16
2017-07-09T04:32:05.572Z,17.09
2017-07-09T04:42:02.359Z,17.54
2017-07-09T04:47:00.265Z,17.49
2017-07-09T04:51:57.237Z,17.19
2017-07-09T05:07:05.701Z,16.97
2017-07-09T05:17:07.449Z,16.99
2017-07-09T05:22:04.899Z,17.04
2017-07-09T05:32:04.403Z,16.75
2017-07-09T05:37:00.117Z,16.86
2017-07-09T05:41:56.602Z,16.93
2017-07-09T05:46:52.888Z,17.31
2017-07-09T05:51:51.092Z,18.07
2017-07-09T05:56:48.421Z,17.67
2017-07-09T06:01:44.029Z,17.68
2017-07-09T06:06:41.006Z,17.59
2017-07-09T06:11:38.911Z,17.60
2017-07-09T06:16:34.251Z,17.83
2017-07-09T06:21:33.624Z,18.08
2017-07-09T06:26:31.128Z,18.08
2017-07-09T06:36:38.318Z,18.03
2017-07-09T06:41:34.129Z,17.94
2017-07-09T06:46:31.362Z,18.20
2017-07-09T06:51:27.320Z,18.78
2017-07-09T06:56:23.889Z,19.14
2017-07-09T07:01:21.297Z,19.16
2017-07-09T07:06:18.567Z,19.19
2017-07-09T07:11:15.550Z,18.78
2017-07-09T07:16:11.695Z,18.92
2017-07-09T07:21:09.225Z,19.08
2017-07-09T07:26:07.125Z,19.47
2017-07-09T07:31:05.512Z,19.52
2017-07-09T07:36:03.424Z,19.11
2017-07-09T07:41:00.653Z,19.24
2017-07-09T07:45:58.345Z,19.67
2017-07-09T07:50:55.231Z,20.14
2017-07-09T07:55:51.638Z,20.24
2017-07-09T08:00:51.098Z,20.37
2017-07-09T08:05:46.746Z,20.55
2017-07-09T08:15:48.418Z,20.62
2017-07-09T08:20:45.453Z,20.77
2017-07-09T08:25:42.866Z,20.75
2017-07-09T08:30:37.913Z,20.22
2017-07-09T08:35:35.333Z,20.70
2017-07-09T08:40:31.299Z,20.95
2017-07-09T08:45:29.002Z,20.69
2017-07-09T08:50:26.317Z,21.22
2017-07-09T08:55:22.663Z,21.20
2017-07-09T09:00:20.036Z,21.72
2017-07-09T09:05:19.045Z,22.63
2017-07-09T09:10:17.904Z,22.90
2017-07-09T09:15:14.784Z,23.13
2017-07-09T09:25:16.745Z,24.03
2017-07-09T09:30:14.189Z,24.26
2017-07-09T09:35:13.769Z,24.05
2017-07-09T09:40:09.700Z,22.93
2017-07-09T09:50:04.719Z,24.05
2017-07-09T09:55:04.398Z,23.80
2017-07-09T09:59:59.403Z,23.81
2017-07-09T10:04:59.161Z,23.55
2017-07-09T10:09:58.837Z,23.91
2017-07-09T10:19:57.693Z,23.43
2017-07-09T10:24:53.048Z,22.78
2017-07-09T10:34:56.672Z,22.80
2017-07-09T10:39:55.937Z,22.83
2017-07-09T10:44:51.625Z,23.24
2017-07-09T10:49:49.293Z,23.66
2017-07-09T10:54:50.301Z,24.08
2017-07-09T10:59:49.243Z,23.62
2017-07-09T11:04:43.243Z,23.43
2017-07-09T11:09:41.071Z,23.68
2017-07-09T11:14:37.922Z,23.61
2017-07-09T11:19:35.255Z,24.02
2017-07-09T11:24:32.562Z,24.08
2017-07-09T11:29:29.542Z,24.77
2017-07-09T11:34:29.407Z,25.66
2017-07-09T11:39:25.305Z,24.47
2017-07-09T11:44:25.119Z,24.95
2017-07-09T11:49:18.562Z,24.88
2017-07-09T11:54:14.040Z,24.65
2017-07-09T11:59:12.478Z,25.16
2017-07-09T12:04:08.848Z,25.41
2017-07-09T12:09:07.371Z,25.46
2017-07-09T12:14:07.709Z,25.10
2017-07-09T12:19:01.241Z,25.29
2017-07-09T12:24:02.050Z,25.36
2017-07-09T12:28:55.429Z,25.96
2017-07-09T12:33:53.513Z,25.95
2017-07-09T12:38:51.474Z,25.84
2017-07-09T12:43:48.712Z,26.07
2017-07-09T12:48:45.583Z,26.22
2017-07-09T12:53:41.790Z,26.95
2017-07-09T12:58:38.970Z,26.84
2017-07-09T13:03:33.818Z,26.00
2017-07-09T13:08:27.504Z,26.00
2017-07-09T13:13:24.470Z,25.84
2017-07-09T13:18:20.531Z,25.60
2017-07-09T13:23:15.625Z,25.47
2017-07-09T13:28:11.906Z,25.83
2017-07-09T13:33:11.806Z,26.26
2017-07-09T13:38:08.246Z,26.73
2017-07-09T13:43:04.313Z,26.77
2017-07-09T13:48:00.577Z,27.02
2017-07-09T13:52:55.932Z,26.28
2017-07-09T13:57:51.808Z,26.26
2017-07-09T14:02:48.778Z,26.07
2017-07-09T14:07:46.167Z,25.21
2017-07-09T14:12:43.221Z,25.07
2017-07-09T14:17:38.483Z,25.44
2017-07-09T14:22:34.343Z,25.84
2017-07-09T14:27:30.421Z,26.22
2017-07-09T14:32:31.623Z,25.90
2017-07-09T14:37:26.201Z,25.73
2017-07-09T14:42:22.015Z,25.90
2017-07-09T14:47:18.740Z,25.46
2017-07-09T14:52:14.489Z,25.69
2017-07-09T14:57:10.880Z,25.65
2017-07-09T15:02:06.837Z,25.68
2017-07-09T15:07:04.046Z,25.84
2017-07-09T15:12:00.301Z,25.40
2017-07-09T15:16:58.249Z,25.40
2017-07-09T15:21:54.501Z,25.23
2017-07-09T15:26:51.974Z,25.23
2017-07-09T15:31:51.058Z,25.38
2017-07-09T15:36:47.265Z,25.40
2017-07-09T15:41:48.746Z,25.36
2017-07-09T15:46:44.656Z,25.38
2017-07-09T15:51:41.130Z,25.33
2017-07-09T15:56:38.028Z,25.16
2017-07-09T16:01:35.232Z,25.32
2017-07-09T16:06:31.955Z,25.38
2017-07-09T16:11:28.307Z,25.18
2017-07-09T16:21:27.351Z,25.40
2017-07-09T16:26:24.167Z,25.33
2017-07-09T16:31:21.030Z,25.40
2017-07-09T16:36:16.759Z,25.31
2017-07-09T16:41:12.627Z,25.16
2017-07-09T16:46:08.766Z,25.28
2017-07-09T16:51:06.257Z,25.22
2017-07-09T16:56:02.012Z,25.23
2017-07-09T17:00:58.633Z,25.23
2017-07-09T17:05:55.119Z,25.21
2017-07-09T17:10:52.099Z,24.93
2017-07-09T17:15:50.001Z,25.01
2017-07-09T17:20:46.822Z,24.89
2017-07-09T17:25:42.369Z,24.80
2017-07-09T17:30:38.258Z,24.77
2017-07-09T17:35:34.392Z,24.74
2017-07-09T17:40:30.423Z,24.85
2017-07-09T17:45:29.646Z,24.76
2017-07-09T17:50:26.234Z,24.68
2017-07-09T17:55:22.824Z,24.61
2017-07-09T18:00:18.418Z,24.61
2017-07-09T18:05:15.757Z,24.51
2017-07-09T18:10:12.354Z,24.38
2017-07-09T18:15:08.725Z,24.32
2017-07-09T18:20:06.545Z,24.26
2017-07-09T18:25:03.273Z,24.35
2017-07-09T18:29:58.821Z,24.47
2017-07-09T18:34:55.726Z,24.32
2017-07-09T18:39:56.450Z,24.23
2017-07-09T18:44:51.880Z,24.23
2017-07-09T18:49:47.654Z,24.13
2017-07-09T18:54:43.539Z,23.99
2017-07-09T18:59:39.434Z,23.92
2017-07-09T19:04:37.245Z,23.92
2017-07-09T19:09:34.142Z,23.74
2017-07-09T19:14:30.714Z,23.68
2017-07-09T19:19:27.325Z,23.65
2017-07-09T19:24:23.416Z,23.61
2017-07-09T19:29:21.136Z,23.44
2017-07-09T19:34:16.509Z,23.31
2017-07-09T19:39:14.658Z,23.25
2017-07-09T19:44:09.993Z,23.10
2017-07-09T19:49:05.932Z,23.00
2017-07-09T19:54:02.774Z,23.02
2017-07-09T19:59:02.891Z,22.99
2017-07-09T20:03:59.012Z,22.81
2017-07-09T20:08:54.826Z,22.76
2017-07-09T20:13:50.870Z,22.75
2017-07-09T20:18:46.801Z,22.51
2017-07-09T20:23:43.141Z,22.44
2017-07-09T20:28:39.707Z,22.35
2017-07-09T20:33:36.689Z,22.23
2017-07-09T20:38:33.807Z,22.07
2017-07-09T20:43:30.572Z,22.04
2017-07-09T20:48:26.719Z,21.95
2017-07-09T20:53:22.204Z,21.89
2017-07-09T20:58:18.304Z,21.83
2017-07-09T21:03:14.842Z,21.76
2017-07-09T21:08:10.778Z,21.66
2017-07-09T21:13:06.821Z,21.64
2017-07-09T21:18:04.039Z,21.67
2017-07-09T21:23:03.187Z,21.52
2017-07-09T21:28:00.276Z,21.45
2017-07-09T21:32:56.962Z,21.32
2017-07-09T21:37:54.640Z,21.27
2017-07-09T21:42:54.092Z,21.18
2017-07-09T21:47:52.352Z,21.11
2017-07-09T21:52:50.170Z,21.06
2017-07-09T21:57:46.886Z,20.92
2017-07-09T22:02:42.927Z,20.82
2017-07-09T22:07:40.060Z,20.80
2017-07-09T22:12:36.999Z,20.84
2017-07-09T22:17:33.773Z,20.81
2017-07-09T22:22:30.031Z,20.81
2017-07-09T22:27:30.207Z,20.77
2017-07-09T22:37:28.113Z,20.67
2017-07-09T22:42:27.139Z,20.74
2017-07-09T22:47:24.645Z,20.48
2017-07-09T22:52:21.447Z,20.47
2017-07-09T22:57:20.948Z,20.39
2017-07-09T23:02:17.961Z,20.34
2017-07-09T23:07:14.169Z,20.29
2017-07-09T23:12:11.104Z,20.24
2017-07-09T23:17:07.814Z,20.21
2017-07-09T23:22:05.461Z,20.29
2017-07-09T23:32:04.749Z,20.07
2017-07-09T23:37:00.605Z,20.10
2017-07-09T23:41:58.196Z,20.00
2017-07-09T23:46:54.647Z,19.69
2017-07-09T23:51:50.607Z,19.70
2017-07-09T23:56:47.571Z,19.59
